Time;durP1;ratioP1;P1;durP2;ratioP2;P2;SDS_P1;SDS_P2;PMS_P1;PMS_P2;Temp;Humidity;BMP_temperature;BMP_pressure;BME280_temperature;BME280_humidity;BME280_pressure;Samples;Min_cycle;Max_cycle;Signal;HPM_P1;HPM_P2
2021/08/27 00:00:57;;;;;;;8.18;3.95;;;;;;;;;;5050876;28;20033;-59
2021/08/27 00:03:22;;;;;;;9.32;4.10;;;;;;;;;;5048353;28;20025;-60
2021/08/27 00:05:49;;;;;;;10.25;4.03;;;;;;;;;;5050323;28;21260;-60
2021/08/27 00:08:14;;;;;;;9.80;4.70;;;;;;;;;;5049126;28;20033;-60
2021/08/27 00:10:40;;;;;;;11.52;4.63;;;;;;;;;;5050421;28;20078;-60
2021/08/27 00:13:09;;;;;;;10.43;4.30;;;;;;;;;;5048949;28;20049;-60
2021/08/27 00:15:34;;;;;;;9.80;4.50;;;;;;;;;;5051507;28;20267;-60
2021/08/27 00:18:00;;;;;;;11.52;5.18;;;;;;;;;;5049029;28;20566;-59
2021/08/27 00:20:25;;;;;;;10.55;4.38;;;;;;;;;;5052489;28;20033;-59
2021/08/27 00:22:51;;;;;;;13.85;4.80;;;;;;;;;;5048515;28;20036;-59
2021/08/27 00:25:16;;;;;;;9.35;4.90;;;;;;;;;;5053140;28;20024;-60
2021/08/27 00:27:42;;;;;;;10.95;4.90;;;;;;;;;;5049030;28;20100;-59
2021/08/27 00:30:08;;;;;;;9.68;4.30;;;;;;;;;;5048513;28;20039;-60
2021/08/27 00:32:33;;;;;;;10.25;4.45;;;;;;;;;;5047138;28;20024;-59
2021/08/27 00:34:59;;;;;;;11.23;4.20;;;;;;;;;;5046144;28;20032;-60
2021/08/27 00:37:24;;;;;;;11.23;4.88;;;;;;;;;;5062672;28;20455;-59
2021/08/27 00:39:49;;;;;;;9.68;4.40;;;;;;;;;;5047206;28;20506;-60
2021/08/27 00:42:15;;;;;;;10.38;4.60;;;;;;;;;;5047838;28;20108;-59
2021/08/27 00:44:40;;;;;;;14.15;4.60;;;;;;;;;;5046930;28;20449;-60
2021/08/27 00:47:06;;;;;;;9.38;4.63;;;;;;;;;;5047290;28;20020;-60
2021/08/27 00:49:32;;;;;;;8.95;4.32;;;;;;;;;;5045824;28;20025;-60
2021/08/27 00:51:58;;;;;;;9.70;4.63;;;;;;;;;;5046863;28;20025;-59
2021/08/27 00:54:24;;;;;;;12.05;4.45;;;;;;;;;;5048083;28;20086;-60
2021/08/27 00:56:50;;;;;;;7.97;4.32;;;;;;;;;;5048124;28;20033;-60
2021/08/27 00:59:15;;;;;;;7.97;4.45;;;;;;;;;;5051478;28;20035;-60
2021/08/27 01:01:42;;;;;;;8.00;4.40;;;;;;;;;;5047587;28;20048;-60
2021/08/27 01:04:07;;;;;;;12.02;4.30;;;;;;;;;;5048054;28;20075;-59
2021/08/27 01:06:38;;;;;;;18.30;4.75;;;;;;;;;;5049330;28;20027;-60
2021/08/27 01:09:17;;;;;;;9.93;4.47;;;;;;;;;;5062562;28;20027;-60
2021/08/27 01:11:48;;;;;;;10.70;4.30;;;;;;;;;;5047296;28;20500;-60
2021/08/27 01:14:22;;;;;;;7.63;4.22;;;;;;;;;;5047663;28;20025;-60
2021/08/27 01:16:54;;;;;;;11.30;4.68;;;;;;;;;;5045345;28;20025;-59
2021/08/27 01:19:41;;;;;;;14.20;4.80;;;;;;;;;;5043190;28;20039;-60
2021/08/27 01:22:40;;;;;;;10.75;4.68;;;;;;;;;;5065602;28;20070;-59
2021/08/27 01:25:10;;;;;;;11.15;5.18;;;;;;;;;;5048655;28;20024;-60
2021/08/27 01:27:37;;;;;;;;;;;;;;;;;;5046898;28;20092;-60
2021/08/27 01:30:08;;;;;;;10.57;4.63;;;;;;;;;;5046568;28;19917;-60
2021/08/27 01:32:55;;;;;;;11.10;4.50;;;;;;;;;;5046364;28;20032;-60
2021/08/27 01:35:23;;;;;;;10.95;5.13;;;;;;;;;;5047571;28;20381;-59
2021/08/27 01:37:51;;;;;;;9.73;4.60;;;;;;;;;;5061592;28;20028;-59
2021/08/27 01:40:18;;;;;;;11.35;4.63;;;;;;;;;;5048311;28;20029;-59
2021/08/27 01:42:46;;;;;;;13.68;5.20;;;;;;;;;;5048107;28;20025;-60
2021/08/27 01:45:13;;;;;;;7.53;4.68;;;;;;;;;;5047340;28;20491;-60
2021/08/27 01:47:39;;;;;;;8.18;4.63;;;;;;;;;;5049634;28;20033;-60
2021/08/27 01:50:06;;;;;;;9.77;5.03;;;;;;;;;;5047494;28;20036;-60
2021/08/27 01:52:32;;;;;;;11.73;4.80;;;;;;;;;;5046408;28;20029;-59
2021/08/27 01:54:59;;;;;;;12.15;5.20;;;;;;;;;;5046321;28;20106;-60
2021/08/27 01:57:27;;;;;;;11.20;4.43;;;;;;;;;;5049134;28;20033;-59
2021/08/27 01:59:52;;;;;;;10.95;4.57;;;;;;;;;;5048696;28;20028;-59
2021/08/27 02:02:20;;;;;;;9.57;4.28;;;;;;;;;;5049155;28;20502;-59
2021/08/27 02:04:58;;;;;;;10.65;5.13;;;;;;;;;;5053059;28;20032;-59
2021/08/27 02:07:23;;;;;;;9.43;4.97;;;;;;;;;;5044084;28;20733;-59
2021/08/27 02:09:52;;;;;;;12.35;4.63;;;;;;;;;;5045661;28;20036;-60
2021/08/27 02:12:18;;;;;;;10.45;4.47;;;;;;;;;;5045658;28;20031;-59
2021/08/27 02:14:45;;;;;;;9.00;4.38;;;;;;;;;;5052769;28;20033;-59
2021/08/27 02:17:11;;;;;;;9.52;5.18;;;;;;;;;;5051611;28;20091;-60
2021/08/27 02:19:37;;;;;;;11.48;4.80;;;;;;;;;;5052811;28;20510;-59
2021/08/27 02:22:06;;;;;;;9.52;4.70;;;;;;;;;;5051636;28;20108;-59
2021/08/27 02:24:35;;;;;;;11.18;5.22;;;;;;;;;;5051119;28;20056;-59
2021/08/27 02:27:03;;;;;;;10.32;5.43;;;;;;;;;;5054387;28;20044;-59
2021/08/27 02:29:31;;;;;;;12.07;4.90;;;;;;;;;;5048992;28;20032;-59
2021/08/27 02:32:01;;;;;;;10.90;5.40;;;;;;;;;;5050210;28;20024;-59
2021/08/27 02:34:28;;;;;;;10.15;4.70;;;;;;;;;;5052496;28;20029;-59
2021/08/27 02:36:56;;;;;;;9.05;5.15;;;;;;;;;;5049853;28;20108;-59
2021/08/27 02:39:22;;;;;;;11.30;5.53;;;;;;;;;;5051565;28;20067;-59
2021/08/27 02:41:48;;;;;;;11.70;5.50;;;;;;;;;;5049639;28;20025;-59
2021/08/27 02:44:14;;;;;;;8.27;5.03;;;;;;;;;;5047940;28;20033;-59
2021/08/27 02:46:39;;;;;;;11.27;4.85;;;;;;;;;;5054426;28;20045;-59
2021/08/27 02:49:05;;;;;;;12.55;5.30;;;;;;;;;;5050040;28;20029;-59
2021/08/27 02:51:41;;;;;;;14.48;5.50;;;;;;;;;;5049873;28;20029;-59
2021/08/27 02:54:08;;;;;;;12.77;5.32;;;;;;;;;;5048987;28;20090;-60
2021/08/27 02:56:37;;;;;;;11.10;5.80;;;;;;;;;;5051292;28;20021;-59
2021/08/27 02:59:10;;;;;;;11.85;5.75;;;;;;;;;;5051178;28;20043;-59
2021/08/27 03:01:38;;;;;;;11.35;5.43;;;;;;;;;;5046540;28;20037;-59
2021/08/27 03:04:11;;;;;;;12.20;5.15;;;;;;;;;;5050299;28;20028;-59
2021/08/27 03:06:47;;;;;;;10.63;5.60;;;;;;;;;;5051394;28;20395;-59
2021/08/27 03:09:13;;;;;;;12.73;5.68;;;;;;;;;;5048393;28;20112;-59
2021/08/27 03:11:52;;;;;;;11.23;4.82;;;;;;;;;;5048524;28;20456;-59
2021/08/27 03:14:36;;;;;;;8.98;5.82;;;;;;;;;;5050783;28;20032;-59
2021/08/27 03:17:07;;;;;;;16.42;5.72;;;;;;;;;;5048212;28;20403;-59
2021/08/27 03:19:57;;;;;;;9.68;5.00;;;;;;;;;;5052544;28;20029;-59
2021/08/27 03:22:30;;;;;;;10.95;5.45;;;;;;;;;;5049824;28;20498;-59
2021/08/27 03:25:05;;;;;;;9.90;5.53;;;;;;;;;;5053520;28;20377;-59
2021/08/27 03:27:35;;;;;;;12.48;5.65;;;;;;;;;;5050172;28;20035;-59
2021/08/27 03:30:08;;;;;;;16.67;5.90;;;;;;;;;;5049387;28;20032;-60
2021/08/27 03:32:34;;;;;;;13.02;5.88;;;;;;;;;;5049726;28;20029;-59
2021/08/27 03:35:00;;;;;;;10.52;6.15;;;;;;;;;;5051641;28;20283;-59
2021/08/27 03:37:26;;;;;;;14.15;6.22;;;;;;;;;;5048726;28;20036;-59
2021/08/27 03:39:52;;;;;;;13.02;6.53;;;;;;;;;;5052595;28;20528;-60
2021/08/27 03:42:18;;;;;;;16.42;7.28;;;;;;;;;;5066443;28;20128;-60
2021/08/27 03:44:46;;;;;;;18.67;7.40;;;;;;;;;;5049519;28;20339;-60
2021/08/27 03:47:14;;;;;;;12.55;6.28;;;;;;;;;;5050830;28;20035;-60
2021/08/27 03:49:40;;;;;;;13.18;7.20;;;;;;;;;;5047334;28;20504;-59
2021/08/27 03:52:06;;;;;;;16.67;7.03;;;;;;;;;;5048518;28;20120;-59
2021/08/27 03:54:33;;;;;;;12.20;6.35;;;;;;;;;;5049369;28;20040;-60
2021/08/27 03:57:01;;;;;;;14.48;6.47;;;;;;;;;;5050187;28;20486;-59
2021/08/27 03:59:28;;;;;;;13.90;6.45;;;;;;;;;;5048331;28;20114;-59
2021/08/27 04:01:54;;;;;;;11.38;6.70;;;;;;;;;;5052805;28;20024;-59
2021/08/27 04:04:21;;;;;;;16.20;6.63;;;;;;;;;;5049019;28;20070;-59
2021/08/27 04:06:58;;;;;;;14.60;6.82;;;;;;;;;;5051696;28;20040;-60
2021/08/27 04:09:25;;;;;;;16.10;7.32;;;;;;;;;;5048173;28;20079;-59
2021/08/27 04:11:51;;;;;;;15.90;7.32;;;;;;;;;;5049137;28;20037;-59
2021/08/27 04:14:17;;;;;;;13.65;7.55;;;;;;;;;;5048011;28;20021;-59
2021/08/27 04:16:43;;;;;;;13.63;6.60;;;;;;;;;;5049869;28;20048;-59
2021/08/27 04:19:09;;;;;;;15.75;7.88;;;;;;;;;;5047354;28;20555;-60
2021/08/27 04:21:35;;;;;;;19.95;10.73;;;;;;;;;;5048502;28;20103;-59
2021/08/27 04:24:00;;;;;;;15.23;8.80;;;;;;;;;;5052300;28;20027;-59
2021/08/27 04:26:25;;;;;;;13.93;8.15;;;;;;;;;;5048067;28;20025;-60
2021/08/27 04:28:51;;;;;;;14.05;8.10;;;;;;;;;;5046132;28;20036;-59
2021/08/27 04:31:16;;;;;;;15.95;8.45;;;;;;;;;;5049547;28;20028;-59
2021/08/27 04:33:42;;;;;;;15.30;8.57;;;;;;;;;;5046599;28;20101;-60
2021/08/27 04:36:07;;;;;;;17.02;9.23;;;;;;;;;;5048875;28;20037;-60
2021/08/27 04:38:33;;;;;;;16.90;9.10;;;;;;;;;;5049090;28;20115;-60
2021/08/27 04:40:58;;;;;;;18.67;9.07;;;;;;;;;;5048711;28;20043;-61
2021/08/27 04:43:23;;;;;;;18.23;9.60;;;;;;;;;;5050291;28;20519;-60
2021/08/27 04:45:49;;;;;;;14.82;8.88;;;;;;;;;;5048012;28;20025;-60
2021/08/27 04:48:14;;;;;;;20.42;9.45;;;;;;;;;;5046538;28;20024;-60
2021/08/27 04:50:40;;;;;;;18.63;8.80;;;;;;;;;;5046714;28;20104;-59
2021/08/27 04:53:05;;;;;;;19.08;9.32;;;;;;;;;;5047735;28;20032;-59
2021/08/27 04:55:31;;;;;;;24.20;10.13;;;;;;;;;;5049240;28;20025;-59
2021/08/27 04:57:56;;;;;;;22.30;10.82;;;;;;;;;;5047960;28;20017;-59
2021/08/27 05:00:22;;;;;;;18.77;10.55;;;;;;;;;;5049999;28;20032;-58
2021/08/27 05:02:47;;;;;;;22.00;11.25;;;;;;;;;;5050693;28;20296;-59
2021/08/27 05:05:13;;;;;;;20.25;11.00;;;;;;;;;;5048403;28;20039;-59
2021/08/27 05:07:38;;;;;;;20.52;11.55;;;;;;;;;;5048963;28;20025;-59
2021/08/27 05:10:04;;;;;;;20.23;10.98;;;;;;;;;;5048190;28;20112;-58
2021/08/27 05:12:30;;;;;;;25.33;12.18;;;;;;;;;;5046966;28;20112;-58
2021/08/27 05:14:55;;;;;;;21.00;11.40;;;;;;;;;;5047760;28;20029;-58
2021/08/27 05:17:21;;;;;;;26.60;11.65;;;;;;;;;;5049895;28;20060;-58
2021/08/27 05:19:46;;;;;;;23.77;10.98;;;;;;;;;;5046515;28;20025;-58
2021/08/27 05:22:12;;;;;;;19.73;11.00;;;;;;;;;;5050542;28;20522;-58
2021/08/27 05:24:37;;;;;;;19.73;11.13;;;;;;;;;;5049020;28;20029;-58
2021/08/27 05:27:03;;;;;;;21.88;10.60;;;;;;;;;;5052573;28;20024;-58
2021/08/27 05:29:28;;;;;;;21.35;10.57;;;;;;;;;;5046515;28;20037;-58
2021/08/27 05:31:54;;;;;;;20.35;10.60;;;;;;;;;;5046685;28;20507;-58
2021/08/27 05:34:20;;;;;;;22.95;10.95;;;;;;;;;;5046369;28;20035;-58
2021/08/27 05:36:45;;;;;;;19.90;10.40;;;;;;;;;;5048241;28;20055;-58
2021/08/27 05:39:11;;;;;;;23.23;10.73;;;;;;;;;;5049852;28;20029;-58
2021/08/27 05:41:36;;;;;;;17.98;9.85;;;;;;;;;;5047340;28;20437;-57
2021/08/27 05:44:02;;;;;;;19.23;10.15;;;;;;;;;;5047639;28;20041;-57
2021/08/27 05:46:28;;;;;;;18.40;10.23;;;;;;;;;;5046523;28;20045;-57
2021/08/27 05:48:53;;;;;;;19.30;9.45;;;;;;;;;;5045374;28;20507;-57
2021/08/27 05:51:19;;;;;;;19.20;9.25;;;;;;;;;;5046818;28;20025;-57
2021/08/27 05:53:44;;;;;;;19.38;9.52;;;;;;;;;;5048070;28;20484;-59
2021/08/27 05:56:09;;;;;;;22.02;10.85;;;;;;;;;;5047722;28;20500;-58
2021/08/27 05:58:35;;;;;;;21.50;9.73;;;;;;;;;;5047444;28;20029;-60
2021/08/27 06:01:00;;;;;;;17.45;8.65;;;;;;;;;;5048906;28;20025;-58
2021/08/27 06:03:26;;;;;;;15.82;9.00;;;;;;;;;;5044929;28;20078;-59
2021/08/27 06:05:51;;;;;;;18.90;8.60;;;;;;;;;;5049633;28;20021;-59
2021/08/27 06:08:17;;;;;;;20.10;9.63;;;;;;;;;;5046254;28;20040;-59
2021/08/27 06:10:42;;;;;;;17.35;9.27;;;;;;;;;;5049722;28;20075;-59
2021/08/27 06:13:07;;;;;;;16.55;9.32;;;;;;;;;;5046445;28;20044;-59
2021/08/27 06:15:33;;;;;;;15.18;8.82;;;;;;;;;;5046512;28;20055;-59
2021/08/27 06:17:58;;;;;;;21.33;9.73;;;;;;;;;;5045036;28;20132;-59
2021/08/27 06:20:24;;;;;;;18.75;9.65;;;;;;;;;;5046494;28;20076;-59
2021/08/27 06:22:49;;;;;;;16.58;9.55;;;;;;;;;;5050605;28;20120;-60
2021/08/27 06:25:15;;;;;;;17.52;8.98;;;;;;;;;;5051469;28;20031;-59
2021/08/27 06:27:41;;;;;;;17.88;9.90;;;;;;;;;;5047514;28;20033;-59
2021/08/27 06:30:07;;;;;;;22.70;11.13;;;;;;;;;;5046060;28;20387;-60
2021/08/27 06:32:33;;;;;;;17.15;10.32;;;;;;;;;;5049626;28;20286;-59
2021/08/27 06:34:58;;;;;;;20.90;11.80;;;;;;;;;;5047005;28;20468;-59
2021/08/27 06:38:21;;;;;;;21.88;12.25;;;;;;;;;;5046777;28;20060;-59
2021/08/27 06:40:11;;;;;;;23.77;11.60;;;;;;;;;;5045425;28;20040;-60
2021/08/27 06:42:37;;;;;;;21.95;11.70;;;;;;;;;;5048320;28;20021;-59
2021/08/27 06:45:04;;;;;;;23.08;10.98;;;;;;;;;;5046223;28;20506;-59
2021/08/27 06:47:29;;;;;;;30.50;13.82;;;;;;;;;;5045972;28;20093;-59
2021/08/27 06:49:55;;;;;;;30.20;13.65;;;;;;;;;;5050740;28;20195;-59
2021/08/27 06:52:20;;;;;;;26.02;13.20;;;;;;;;;;5047486;28;20025;-59
2021/08/27 06:54:45;;;;;;;26.17;12.55;;;;;;;;;;5046497;28;20060;-59
2021/08/27 06:57:11;;;;;;;28.83;12.90;;;;;;;;;;5049196;28;20021;-59
2021/08/27 06:59:36;;;;;;;23.65;11.98;;;;;;;;;;5050666;28;20061;-61
2021/08/27 07:02:01;;;;;;;28.63;13.18;;;;;;;;;;5049326;28;20480;-59
2021/08/27 07:04:27;;;;;;;25.38;13.10;;;;;;;;;;5050756;28;20305;-59
2021/08/27 07:06:52;;;;;;;25.38;13.32;;;;;;;;;;5049164;28;20083;-59
2021/08/27 07:09:18;;;;;;;28.92;14.10;;;;;;;;;;5053577;28;20025;-59
2021/08/27 07:11:43;;;;;;;23.05;11.80;;;;;;;;;;5049220;28;20470;-59
2021/08/27 07:14:10;;;;;;;24.90;13.32;;;;;;;;;;5050704;28;20029;-59
2021/08/27 07:16:35;;;;;;;23.75;13.23;;;;;;;;;;5048036;28;20442;-59
2021/08/27 07:19:01;;;;;;;20.40;11.80;;;;;;;;;;5046402;28;20079;-59
2021/08/27 07:21:26;;;;;;;22.42;13.13;;;;;;;;;;5052667;28;20082;-59
2021/08/27 07:23:51;;;;;;;23.38;12.75;;;;;;;;;;5048387;28;20040;-59
2021/08/27 07:26:17;;;;;;;22.45;13.02;;;;;;;;;;5053258;28;20021;-59
2021/08/27 07:28:42;;;;;;;22.60;12.50;;;;;;;;;;5050286;28;20714;-59
2021/08/27 07:31:07;;;;;;;23.10;12.30;;;;;;;;;;5051024;28;20033;-59
2021/08/27 07:33:33;;;;;;;23.77;12.73;;;;;;;;;;5047395;28;20036;-59
2021/08/27 07:35:58;;;;;;;22.40;12.65;;;;;;;;;;5049029;28;20103;-59
2021/08/27 07:38:25;;;;;;;26.13;13.98;;;;;;;;;;5048275;28;20032;-59
2021/08/27 07:40:50;;;;;;;24.52;13.05;;;;;;;;;;5049232;28;20067;-59
2021/08/27 07:43:16;;;;;;;24.02;12.65;;;;;;;;;;5048832;28;20056;-59
2021/08/27 07:45:41;;;;;;;27.63;12.30;;;;;;;;;;5047653;28;20037;-59
2021/08/27 07:48:07;;;;;;;23.70;12.32;;;;;;;;;;5047586;28;20488;-59
2021/08/27 07:50:32;;;;;;;26.25;13.25;;;;;;;;;;5048624;28;20029;-59
2021/08/27 07:52:58;;;;;;;21.15;12.27;;;;;;;;;;5050712;28;20344;-59
2021/08/27 07:55:23;;;;;;;21.75;12.15;;;;;;;;;;5048790;28;20076;-59
2021/08/27 07:57:49;;;;;;;23.20;11.63;;;;;;;;;;5051046;28;20029;-59
2021/08/27 08:00:15;;;;;;;20.27;10.82;;;;;;;;;;5048851;28;20438;-58
2021/08/27 08:02:40;;;;;;;20.02;10.10;;;;;;;;;;5049926;28;20045;-59
2021/08/27 08:05:07;;;;;;;18.30;10.65;;;;;;;;;;5050449;28;20025;-60
2021/08/27 08:07:32;;;;;;;21.13;10.55;;;;;;;;;;5049896;28;20036;-59
2021/08/27 08:09:58;;;;;;;21.52;10.20;;;;;;;;;;5050333;28;20043;-59
2021/08/27 08:12:23;;;;;;;21.42;9.65;;;;;;;;;;5048893;28;20029;-59
2021/08/27 08:14:49;;;;;;;16.65;9.23;;;;;;;;;;5049662;28;20396;-59
2021/08/27 08:17:14;;;;;;;19.45;9.93;;;;;;;;;;5051596;28;20022;-59
2021/08/27 08:19:39;;;;;;;19.77;10.13;;;;;;;;;;5049435;28;20036;-59
2021/08/27 08:22:05;;;;;;;12.30;7.97;;;;;;;;;;5048543;28;20024;-59
2021/08/27 08:24:30;;;;;;;18.75;8.45;;;;;;;;;;5048027;28;20553;-59
2021/08/27 08:26:56;;;;;;;14.35;7.60;;;;;;;;;;5049611;28;20118;-59
2021/08/27 08:29:21;;;;;;;13.57;8.30;;;;;;;;;;5049064;28;20072;-59
2021/08/27 08:31:46;;;;;;;10.75;7.35;;;;;;;;;;5047534;28;20056;-59
2021/08/27 08:34:12;;;;;;;15.77;8.05;;;;;;;;;;5046712;28;20040;-59
2021/08/27 08:36:38;;;;;;;13.98;7.50;;;;;;;;;;5031646;28;20075;-59
2021/08/27 08:39:05;;;;;;;12.00;7.13;;;;;;;;;;5047905;28;20037;-59
2021/08/27 08:41:31;;;;;;;13.73;7.30;;;;;;;;;;5046745;28;20037;-59
2021/08/27 08:43:56;;;;;;;17.42;6.53;;;;;;;;;;5048683;28;20504;-59
2021/08/27 08:46:22;;;;;;;9.57;6.70;;;;;;;;;;5047268;28;20044;-59
2021/08/27 08:48:50;;;;;;;14.68;7.78;;;;;;;;;;5046088;28;20028;-59
2021/08/27 08:51:18;;;;;;;14.38;6.50;;;;;;;;;;5051175;28;20459;-58
2021/08/27 08:53:45;;;;;;;19.02;9.75;;;;;;;;;;5047634;28;20122;-58
2021/08/27 08:56:11;;;;;;;13.60;7.05;;;;;;;;;;5048641;28;20032;-58
2021/08/27 08:58:36;;;;;;;13.65;6.78;;;;;;;;;;5052513;28;20082;-58
2021/08/27 09:01:02;;;;;;;9.15;5.82;;;;;;;;;;5049754;28;20021;-58
2021/08/27 09:03:27;;;;;;;10.77;6.88;;;;;;;;;;5047017;28;20035;-58
2021/08/27 09:05:54;;;;;;;12.18;6.95;;;;;;;;;;5048343;28;20048;-59
2021/08/27 09:08:39;;;;;;;13.40;7.70;;;;;;;;;;5051654;28;20033;-59
2021/08/27 09:11:19;;;;;;;11.75;7.38;;;;;;;;;;5047440;28;20037;-58
2021/08/27 09:13:45;;;;;;;;;;;;;;;;;;5050735;28;20345;-59
2021/08/27 09:16:10;;;;;;;12.95;5.38;;;;;;;;;;5046636;28;19917;-59
2021/08/27 09:18:49;;;;;;;11.23;6.07;;;;;;;;;;5046552;28;20029;-59
2021/08/27 09:21:31;;;;;;;8.15;4.28;;;;;;;;;;5043292;28;20178;-59
2021/08/27 09:24:10;;;;;;;6.18;3.78;;;;;;;;;;5047901;28;20128;-59
2021/08/27 09:26:36;;;;;;;6.75;4.43;;;;;;;;;;5047066;28;20108;-59
2021/08/27 09:29:02;;;;;;;6.03;3.75;;;;;;;;;;5046904;28;20123;-59
2021/08/27 09:31:35;;;;;;;8.48;3.95;;;;;;;;;;5048760;28;20116;-59
2021/08/27 09:34:00;;;;;;;7.00;4.15;;;;;;;;;;5046365;28;20037;-58
2021/08/27 09:36:29;;;;;;;6.68;3.55;;;;;;;;;;5046580;28;20040;-59
2021/08/27 09:39:11;;;;;;;11.18;4.55;;;;;;;;;;5049906;28;20453;-58
2021/08/27 09:41:37;;;;;;;6.32;3.63;;;;;;;;;;5045187;28;20040;-59
2021/08/27 09:44:03;;;;;;;7.95;3.63;;;;;;;;;;5046797;28;20025;-58
2021/08/27 09:46:43;;;;;;;4.72;3.35;;;;;;;;;;5046056;28;20045;-58
2021/08/27 09:49:30;;;;;;;8.23;3.80;;;;;;;;;;5044523;28;20033;-58
2021/08/27 09:51:58;;;;;;;10.23;3.50;;;;;;;;;;5046761;28;20020;-59
2021/08/27 09:54:32;;;;;;;6.03;3.00;;;;;;;;;;5047562;28;20032;-59
2021/08/27 09:57:07;;;;;;;5.85;2.92;;;;;;;;;;5051003;28;20029;-59
2021/08/27 09:59:51;;;;;;;3.00;2.70;;;;;;;;;;5060791;28;20032;-59
2021/08/27 10:02:29;;;;;;;4.90;2.85;;;;;;;;;;5048024;28;20049;-60
2021/08/27 10:04:59;;;;;;;4.18;2.70;;;;;;;;;;5044375;28;20043;-59
2021/08/27 10:07:29;;;;;;;4.35;2.95;;;;;;;;;;5052397;28;20032;-59
2021/08/27 10:09:57;;;;;;;3.40;2.65;;;;;;;;;;5045897;28;20047;-59
2021/08/27 10:12:23;;;;;;;5.45;2.63;;;;;;;;;;5048870;28;20029;-59
2021/08/27 10:14:50;;;;;;;2.60;2.40;;;;;;;;;;5047094;28;20040;-59
2021/08/27 10:17:16;;;;;;;4.47;2.30;;;;;;;;;;5046830;28;20021;-60
2021/08/27 10:19:41;;;;;;;5.50;2.40;;;;;;;;;;5046526;28;20040;-59
2021/08/27 10:22:07;;;;;;;2.75;2.15;;;;;;;;;;5046228;28;20029;-59
2021/08/27 10:24:32;;;;;;;2.67;1.67;;;;;;;;;;5046831;28;20426;-59
2021/08/27 10:26:59;;;;;;;4.68;2.33;;;;;;;;;;5048047;28;20399;-59
2021/08/27 10:29:25;;;;;;;4.65;2.40;;;;;;;;;;5047021;28;20033;-59
2021/08/27 10:31:51;;;;;;;4.95;2.40;;;;;;;;;;5046240;28;20510;-59
2021/08/27 10:34:38;;;;;;;3.80;2.25;;;;;;;;;;5053132;28;20403;-59
2021/08/27 10:37:04;;;;;;;5.75;2.55;;;;;;;;;;5051810;28;20035;-59
2021/08/27 10:39:41;;;;;;;4.13;2.20;;;;;;;;;;5049401;28;20439;-60
2021/08/27 10:42:08;;;;;;;6.40;2.08;;;;;;;;;;5050058;28;20021;-60
2021/08/27 10:44:49;;;;;;;8.07;2.17;;;;;;;;;;5049364;28;20029;-59
2021/08/27 10:47:15;;;;;;;5.28;2.22;;;;;;;;;;5050501;28;20025;-59
2021/08/27 10:49:47;;;;;;;4.07;2.25;;;;;;;;;;5051298;28;20035;-59
2021/08/27 10:52:29;;;;;;;6.10;2.83;;;;;;;;;;5055189;28;20028;-59
2021/08/27 10:55:04;;;;;;;6.38;2.47;;;;;;;;;;5068109;28;20024;-59
2021/08/27 10:57:41;;;;;;;5.22;2.33;;;;;;;;;;5057486;28;20151;-59
2021/08/27 11:00:07;;;;;;;5.25;2.50;;;;;;;;;;5046619;28;20159;-60
2021/08/27 11:02:53;;;;;;;4.10;2.10;;;;;;;;;;5049520;28;20104;-59
2021/08/27 11:05:43;;;;;;;5.60;2.85;;;;;;;;;;5046836;28;20633;-59
2021/08/27 11:08:17;;;;;;;6.13;1.88;;;;;;;;;;5039038;28;20049;-59
2021/08/27 11:11:04;;;;;;;2.67;1.83;;;;;;;;;;5051717;28;20028;-59
2021/08/27 11:13:35;;;;;;;4.60;2.42;;;;;;;;;;5048277;28;20032;-59
2021/08/27 11:16:23;;;;;;;4.90;2.20;;;;;;;;;;5048108;28;20021;-59
2021/08/27 11:18:50;;;;;;;3.55;2.22;;;;;;;;;;5047960;28;20480;-59
2021/08/27 11:21:39;;;;;;;5.93;2.25;;;;;;;;;;5048378;28;20054;-59
2021/08/27 11:24:15;;;;;;;3.30;2.17;;;;;;;;;;5051762;28;20036;-58
2021/08/27 11:26:56;;;;;;;6.18;2.22;;;;;;;;;;5048837;28;20036;-59
2021/08/27 11:29:27;;;;;;;3.30;2.40;;;;;;;;;;5048880;28;20124;-59
2021/08/27 11:31:54;;;;;;;6.05;2.42;;;;;;;;;;5066189;28;20445;-59
2021/08/27 11:34:24;;;;;;;5.45;2.20;;;;;;;;;;5048080;28;20487;-59
2021/08/27 11:36:50;;;;;;;6.15;2.50;;;;;;;;;;5047677;28;20211;-59
2021/08/27 11:39:16;;;;;;;4.68;2.60;;;;;;;;;;5048478;28;20149;-59
2021/08/27 11:41:42;;;;;;;4.00;2.50;;;;;;;;;;5048737;28;20039;-58
2021/08/27 11:44:09;;;;;;;4.85;2.30;;;;;;;;;;5050002;28;20028;-59
2021/08/27 11:46:37;;;;;;;3.85;2.70;;;;;;;;;;5049010;28;20025;-58
2021/08/27 11:49:19;;;;;;;5.78;2.67;;;;;;;;;;5047199;28;20056;-58
2021/08/27 11:52:11;;;;;;;8.35;2.92;;;;;;;;;;5049222;28;20546;-59
2021/08/27 11:54:36;;;;;;;6.68;3.80;;;;;;;;;;5050702;28;20158;-58
2021/08/27 11:57:02;;;;;;;6.57;2.90;;;;;;;;;;5055433;28;20091;-58
2021/08/27 11:59:28;;;;;;;5.45;2.50;;;;;;;;;;5051845;28;20394;-59
2021/08/27 12:02:14;;;;;;;5.15;2.78;;;;;;;;;;5047247;28;20017;-59
2021/08/27 12:04:39;;;;;;;4.72;3.00;;;;;;;;;;5049008;28;20459;-59
2021/08/27 12:07:12;;;;;;;4.50;2.90;;;;;;;;;;5052156;28;20021;-59
2021/08/27 12:09:39;;;;;;;5.40;3.35;;;;;;;;;;5050828;28;20028;-59
2021/08/27 12:12:05;;;;;;;8.73;3.63;;;;;;;;;;5051043;28;20032;-59
2021/08/27 12:14:51;;;;;;;5.00;3.35;;;;;;;;;;5049538;28;20514;-59
2021/08/27 12:17:22;;;;;;;6.47;3.28;;;;;;;;;;5054266;28;20028;-59
2021/08/27 12:19:48;;;;;;;9.65;3.00;;;;;;;;;;5047387;28;21134;-59
2021/08/27 12:22:16;;;;;;;5.57;2.70;;;;;;;;;;5045265;28;20149;-59
2021/08/27 12:24:42;;;;;;;4.10;2.70;;;;;;;;;;5048733;28;20484;-59
2021/08/27 12:27:08;;;;;;;4.65;3.00;;;;;;;;;;5066019;28;20040;-59
2021/08/27 12:29:34;;;;;;;5.30;2.47;;;;;;;;;;5046896;28;20036;-59
2021/08/27 12:31:59;;;;;;;5.20;2.60;;;;;;;;;;5049115;28;20756;-59
2021/08/27 12:34:25;;;;;;;5.55;2.60;;;;;;;;;;5047511;28;20036;-59
2021/08/27 12:36:50;;;;;;;5.20;2.40;;;;;;;;;;5063352;28;20192;-59
2021/08/27 12:39:16;;;;;;;9.20;3.22;;;;;;;;;;5048396;28;20491;-59
2021/08/27 12:41:42;;;;;;;5.97;2.83;;;;;;;;;;5047332;28;20016;-59
2021/08/27 12:44:09;;;;;;;6.10;3.05;;;;;;;;;;5048785;28;20031;-59
2021/08/27 12:46:34;;;;;;;4.18;3.05;;;;;;;;;;5050494;28;20039;-59
2021/08/27 12:49:16;;;;;;;4.50;2.83;;;;;;;;;;5050740;28;20024;-59
2021/08/27 12:51:49;;;;;;;6.28;2.92;;;;;;;;;;5047602;28;20029;-59
2021/08/27 12:54:17;;;;;;;11.05;3.17;;;;;;;;;;5053613;28;20102;-59
2021/08/27 12:57:00;;;;;;;6.15;2.70;;;;;;;;;;5048722;28;20115;-59
2021/08/27 12:59:25;;;;;;;4.10;2.40;;;;;;;;;;5046846;28;20029;-60
2021/08/27 13:01:54;;;;;;;3.30;2.30;;;;;;;;;;5047712;28;20292;-60
2021/08/27 13:04:22;;;;;;;4.47;2.30;;;;;;;;;;5048662;28;20024;-60
2021/08/27 13:06:50;;;;;;;5.22;2.47;;;;;;;;;;5046246;28;20057;-59
2021/08/27 13:09:30;;;;;;;3.83;2.38;;;;;;;;;;5048004;28;20085;-60
2021/08/27 13:12:01;;;;;;;5.55;2.85;;;;;;;;;;5051198;28;20040;-60
2021/08/27 13:14:34;;;;;;;4.53;2.67;;;;;;;;;;5047623;28;20036;-60
2021/08/27 13:17:08;;;;;;;3.75;2.30;;;;;;;;;;5046327;28;20035;-59
2021/08/27 13:19:45;;;;;;;5.55;2.60;;;;;;;;;;5046181;28;20330;-60
2021/08/27 13:22:13;;;;;;;5.13;2.30;;;;;;;;;;5046961;28;20099;-60
2021/08/27 13:24:38;;;;;;;5.35;2.88;;;;;;;;;;5050086;28;20627;-60
2021/08/27 13:27:04;;;;;;;3.30;2.33;;;;;;;;;;5047323;28;20419;-60
2021/08/27 13:29:29;;;;;;;7.35;2.97;;;;;;;;;;5046859;28;20033;-60
2021/08/27 13:31:55;;;;;;;6.15;2.53;;;;;;;;;;5061333;28;20025;-60
2021/08/27 13:34:20;;;;;;;2.35;2.08;;;;;;;;;;5062185;28;20040;-60
2021/08/27 13:36:46;;;;;;;3.42;2.20;;;;;;;;;;5050858;28;20229;-60
2021/08/27 13:39:12;;;;;;;3.85;2.10;;;;;;;;;;5044781;28;20024;-60
2021/08/27 13:41:39;;;;;;;3.58;1.92;;;;;;;;;;5046376;28;20017;-59
2021/08/27 13:44:06;;;;;;;4.43;2.17;;;;;;;;;;5062309;28;20458;-60
2021/08/27 13:46:35;;;;;;;3.47;2.20;;;;;;;;;;5046412;28;20040;-60
2021/08/27 13:49:02;;;;;;;5.22;2.30;;;;;;;;;;5049982;28;20048;-60
2021/08/27 13:51:27;;;;;;;4.28;2.35;;;;;;;;;;5046066;28;20029;-59
2021/08/27 13:53:53;;;;;;;4.53;2.28;;;;;;;;;;5052134;28;20028;-59
2021/08/27 13:56:18;;;;;;;4.97;2.30;;;;;;;;;;5047215;28;20031;-60
2021/08/27 13:58:44;;;;;;;5.47;2.53;;;;;;;;;;5046681;28;20025;-60
2021/08/27 14:01:09;;;;;;;4.22;2.38;;;;;;;;;;5046467;28;20035;-60
2021/08/27 14:03:34;;;;;;;6.53;2.30;;;;;;;;;;5047130;28;20075;-60
2021/08/27 14:06:00;;;;;;;5.32;2.78;;;;;;;;;;5046076;28;20029;-60
2021/08/27 14:08:25;;;;;;;3.58;2.30;;;;;;;;;;5047369;28;20402;-60
2021/08/27 14:10:51;;;;;;;4.22;2.40;;;;;;;;;;5052724;28;20025;-60
2021/08/27 14:13:16;;;;;;;4.78;2.50;;;;;;;;;;5054400;28;20017;-60
2021/08/27 14:15:42;;;;;;;6.07;2.70;;;;;;;;;;5051881;28;20037;-60
2021/08/27 14:18:07;;;;;;;4.72;2.53;;;;;;;;;;5049332;28;20136;-60
2021/08/27 14:20:33;;;;;;;6.20;3.03;;;;;;;;;;5051773;28;20025;-59
2021/08/27 14:22:58;;;;;;;6.25;2.80;;;;;;;;;;5053867;28;20024;-59
2021/08/27 14:25:24;;;;;;;6.35;2.60;;;;;;;;;;5050522;28;20464;-58
2021/08/27 14:27:49;;;;;;;5.78;2.50;;;;;;;;;;5064679;28;20318;-59
2021/08/27 14:30:16;;;;;;;5.25;2.70;;;;;;;;;;5051788;28;20440;-59
2021/08/27 14:32:43;;;;;;;4.45;2.40;;;;;;;;;;5048888;28;20079;-59
2021/08/27 14:35:10;;;;;;;5.05;3.20;;;;;;;;;;5049678;28;20029;-59
2021/08/27 14:37:37;;;;;;;3.92;2.30;;;;;;;;;;5049509;28;20033;-59
2021/08/27 14:40:06;;;;;;;5.82;2.80;;;;;;;;;;5050171;28;20029;-59